Forside
METAR-TAF:

METAR-TAF

Lufthavne :

Grosse Ile Municipal Airport

Detroit / Grosse Ile, Michigan, USA

Breddekreds: 42-05-55N, længdekreds: 083-09-40W, højde: 180 m

Aktuelle vejr

Denne rapport blev lavet for 31 minutter siden, kl. 21:15 UTC
Vind 14 kt fra vest med vindstød på up til 19 kt
Temperatur 1°C
Fugtighed 93%
Tryk 1008 hPa
Sigt: 8.0 km
Overskyet i en højde af 1100 ft
dis

METAR: KONZ 262115Z AUTO 26014G19KT 5SM BR OVC011 01/00 A2978 RMK AO2 T00120000

Tid: 16:46 (21:46 UTC)


TAF: fraværende

Vejrobservationer og prognoser fra mere end 4000 lufthavne (METAR og TAF).

De gule og røde prikker repræsenterer de meteorologiske stationer.

Flyt musen over at se navnet på stationen.

Så klik over at se vejr observationer og prognoser.

At skifte det kort: Klik på de grønne knapper med et sort kors for at zoome ind; på den grønne knap med en bindestreg for at zoome ud; eller på de grønne pile for tilstødende kort.


METAR-TAF: